sensor_id;sensor_type;location;lat;lon;timestamp;P1;durP1;ratioP1;P2;durP2;ratioP2
52386;SDS011;38317;53.084;6.960;2023-07-24T00:01:52;7.47;;;3.53;;
52386;SDS011;38317;53.084;6.960;2023-07-24T00:04:18;8.85;;;4.40;;
52386;SDS011;38317;53.084;6.960;2023-07-24T00:06:44;8.05;;;3.38;;
52386;SDS011;38317;53.084;6.960;2023-07-24T00:09:09;8.35;;;4.00;;
52386;SDS011;38317;53.084;6.960;2023-07-24T00:11:35;7.15;;;3.78;;
52386;SDS011;38317;53.084;6.960;2023-07-24T00:14:01;7.70;;;3.38;;
52386;SDS011;38317;53.084;6.960;2023-07-24T00:16:26;6.82;;;3.20;;
52386;SDS011;38317;53.084;6.960;2023-07-24T00:18:52;6.90;;;3.53;;
52386;SDS011;38317;53.084;6.960;2023-07-24T00:21:18;7.93;;;3.60;;
52386;SDS011;38317;53.084;6.960;2023-07-24T00:23:43;10.30;;;3.78;;
52386;SDS011;38317;53.084;6.960;2023-07-24T00:26:09;7.15;;;3.72;;
52386;SDS011;38317;53.084;6.960;2023-07-24T00:28:35;7.80;;;3.50;;
52386;SDS011;38317;53.084;6.960;2023-07-24T00:31:00;7.38;;;3.42;;
52386;SDS011;38317;53.084;6.960;2023-07-24T00:33:26;8.00;;;3.83;;
52386;SDS011;38317;53.084;6.960;2023-07-24T00:35:55;7.13;;;3.28;;
52386;SDS011;38317;53.084;6.960;2023-07-24T00:38:22;6.65;;;3.65;;
52386;SDS011;38317;53.084;6.960;2023-07-24T00:40:48;7.03;;;3.33;;
52386;SDS011;38317;53.084;6.960;2023-07-24T00:43:15;8.07;;;4.18;;
52386;SDS011;38317;53.084;6.960;2023-07-24T00:45:40;7.95;;;3.80;;
52386;SDS011;38317;53.084;6.960;2023-07-24T00:48:07;7.38;;;3.45;;
52386;SDS011;38317;53.084;6.960;2023-07-24T00:50:33;8.07;;;3.85;;
52386;SDS011;38317;53.084;6.960;2023-07-24T00:52:59;7.45;;;3.55;;
52386;SDS011;38317;53.084;6.960;2023-07-24T00:55:25;7.45;;;3.42;;
52386;SDS011;38317;53.084;6.960;2023-07-24T00:57:51;7.55;;;3.97;;
52386;SDS011;38317;53.084;6.960;2023-07-24T01:00:17;6.35;;;3.28;;
52386;SDS011;38317;53.084;6.960;2023-07-24T01:02:43;7.55;;;3.40;;
52386;SDS011;38317;53.084;6.960;2023-07-24T01:05:09;8.70;;;3.50;;
52386;SDS011;38317;53.084;6.960;2023-07-24T01:07:37;7.57;;;3.45;;
52386;SDS011;38317;53.084;6.960;2023-07-24T01:10:03;7.75;;;4.10;;
52386;SDS011;38317;53.084;6.960;2023-07-24T01:12:35;6.78;;;3.55;;
52386;SDS011;38317;53.084;6.960;2023-07-24T01:17:30;10.23;;;4.30;;
52386;SDS011;38317;53.084;6.960;2023-07-24T01:19:58;6.97;;;4.03;;
52386;SDS011;38317;53.084;6.960;2023-07-24T01:27:48;9.60;;;4.93;;
52386;SDS011;38317;53.084;6.960;2023-07-24T01:30:16;8.07;;;4.82;;
52386;SDS011;38317;53.084;6.960;2023-07-24T01:32:42;7.97;;;4.72;;
52386;SDS011;38317;53.084;6.960;2023-07-24T01:35:09;9.32;;;5.43;;
52386;SDS011;38317;53.084;6.960;2023-07-24T01:37:34;8.18;;;5.22;;
52386;SDS011;38317;53.084;6.960;2023-07-24T01:40:04;8.15;;;5.40;;
52386;SDS011;38317;53.084;6.960;2023-07-24T01:42:31;8.05;;;5.28;;
52386;SDS011;38317;53.084;6.960;2023-07-24T01:44:57;8.90;;;5.60;;
52386;SDS011;38317;53.084;6.960;2023-07-24T01:47:23;8.68;;;5.50;;
52386;SDS011;38317;53.084;6.960;2023-07-24T01:49:48;10.70;;;6.18;;
52386;SDS011;38317;53.084;6.960;2023-07-24T01:52:14;7.55;;;5.00;;
52386;SDS011;38317;53.084;6.960;2023-07-24T01:54:40;10.10;;;6.30;;
52386;SDS011;38317;53.084;6.960;2023-07-24T01:57:06;9.75;;;6.07;;
52386;SDS011;38317;53.084;6.960;2023-07-24T01:59:31;10.05;;;6.60;;
52386;SDS011;38317;53.084;6.960;2023-07-24T02:01:57;10.23;;;6.28;;
52386;SDS011;38317;53.084;6.960;2023-07-24T02:04:23;9.00;;;6.53;;
52386;SDS011;38317;53.084;6.960;2023-07-24T02:06:49;9.20;;;5.88;;
52386;SDS011;38317;53.084;6.960;2023-07-24T02:09:15;9.15;;;6.45;;
52386;SDS011;38317;53.084;6.960;2023-07-24T02:11:42;10.20;;;6.28;;
52386;SDS011;38317;53.084;6.960;2023-07-24T02:14:08;10.23;;;6.30;;
52386;SDS011;38317;53.084;6.960;2023-07-24T02:16:33;9.90;;;6.93;;
52386;SDS011;38317;53.084;6.960;2023-07-24T02:19:00;9.45;;;6.43;;
52386;SDS011;38317;53.084;6.960;2023-07-24T02:21:26;9.25;;;6.35;;
52386;SDS011;38317;53.084;6.960;2023-07-24T02:23:52;10.80;;;6.75;;
52386;SDS011;38317;53.084;6.960;2023-07-24T02:26:17;9.07;;;5.75;;
52386;SDS011;38317;53.084;6.960;2023-07-24T02:28:43;10.38;;;5.97;;
52386;SDS011;38317;53.084;6.960;2023-07-24T02:31:09;8.85;;;5.85;;
52386;SDS011;38317;53.084;6.960;2023-07-24T02:33:34;9.10;;;5.88;;
52386;SDS011;38317;53.084;6.960;2023-07-24T02:36:00;9.82;;;6.05;;
52386;SDS011;38317;53.084;6.960;2023-07-24T02:38:26;10.07;;;6.72;;
52386;SDS011;38317;53.084;6.960;2023-07-24T02:40:52;11.85;;;6.28;;
52386;SDS011;38317;53.084;6.960;2023-07-24T02:43:18;8.82;;;6.05;;
52386;SDS011;38317;53.084;6.960;2023-07-24T02:45:43;9.85;;;6.72;;
52386;SDS011;38317;53.084;6.960;2023-07-24T02:48:09;8.77;;;6.40;;
52386;SDS011;38317;53.084;6.960;2023-07-24T02:50:35;9.85;;;6.28;;
52386;SDS011;38317;53.084;6.960;2023-07-24T02:53:01;8.63;;;6.22;;
52386;SDS011;38317;53.084;6.960;2023-07-24T02:55:26;9.43;;;6.35;;
52386;SDS011;38317;53.084;6.960;2023-07-24T02:57:52;9.05;;;6.45;;
52386;SDS011;38317;53.084;6.960;2023-07-24T03:00:18;9.32;;;5.68;;
52386;SDS011;38317;53.084;6.960;2023-07-24T03:02:44;9.20;;;5.78;;
52386;SDS011;38317;53.084;6.960;2023-07-24T03:05:10;9.85;;;6.50;;
52386;SDS011;38317;53.084;6.960;2023-07-24T03:07:35;9.50;;;6.15;;
52386;SDS011;38317;53.084;6.960;2023-07-24T03:10:01;10.52;;;6.20;;
52386;SDS011;38317;53.084;6.960;2023-07-24T03:12:27;9.52;;;6.28;;
52386;SDS011;38317;53.084;6.960;2023-07-24T03:14:53;10.77;;;6.43;;
52386;SDS011;38317;53.084;6.960;2023-07-24T03:17:19;10.07;;;5.85;;
52386;SDS011;38317;53.084;6.960;2023-07-24T03:19:45;9.93;;;6.30;;
52386;SDS011;38317;53.084;6.960;2023-07-24T03:22:13;8.10;;;5.60;;
52386;SDS011;38317;53.084;6.960;2023-07-24T03:24:39;9.25;;;6.20;;
52386;SDS011;38317;53.084;6.960;2023-07-24T03:27:04;9.48;;;5.75;;
52386;SDS011;38317;53.084;6.960;2023-07-24T03:29:30;9.57;;;5.72;;
52386;SDS011;38317;53.084;6.960;2023-07-24T03:31:56;7.95;;;5.22;;
52386;SDS011;38317;53.084;6.960;2023-07-24T03:34:22;9.05;;;5.70;;
52386;SDS011;38317;53.084;6.960;2023-07-24T03:36:47;8.63;;;5.25;;
52386;SDS011;38317;53.084;6.960;2023-07-24T03:39:13;8.52;;;5.18;;
52386;SDS011;38317;53.084;6.960;2023-07-24T03:41:39;9.60;;;5.60;;
52386;SDS011;38317;53.084;6.960;2023-07-24T03:44:06;8.23;;;4.95;;
52386;SDS011;38317;53.084;6.960;2023-07-24T03:46:32;8.02;;;5.22;;
52386;SDS011;38317;53.084;6.960;2023-07-24T03:48:58;8.55;;;4.93;;
52386;SDS011;38317;53.084;6.960;2023-07-24T03:51:23;10.30;;;5.82;;
52386;SDS011;38317;53.084;6.960;2023-07-24T03:53:49;8.55;;;5.18;;
52386;SDS011;38317;53.084;6.960;2023-07-24T03:56:15;9.18;;;5.80;;
52386;SDS011;38317;53.084;6.960;2023-07-24T03:58:40;7.93;;;5.10;;
52386;SDS011;38317;53.084;6.960;2023-07-24T04:01:07;9.18;;;5.25;;
52386;SDS011;38317;53.084;6.960;2023-07-24T04:03:33;9.57;;;5.57;;
52386;SDS011;38317;53.084;6.960;2023-07-24T04:05:59;8.00;;;4.97;;
52386;SDS011;38317;53.084;6.960;2023-07-24T04:08:25;8.07;;;4.50;;
52386;SDS011;38317;53.084;6.960;2023-07-24T04:10:51;8.27;;;5.28;;
52386;SDS011;38317;53.084;6.960;2023-07-24T04:13:17;8.40;;;5.68;;
52386;SDS011;38317;53.084;6.960;2023-07-24T04:15:43;7.57;;;5.15;;
52386;SDS011;38317;53.084;6.960;2023-07-24T04:18:09;7.40;;;5.03;;
52386;SDS011;38317;53.084;6.960;2023-07-24T04:20:36;9.63;;;5.50;;
52386;SDS011;38317;53.084;6.960;2023-07-24T04:23:02;9.55;;;5.53;;
52386;SDS011;38317;53.084;6.960;2023-07-24T04:25:28;9.30;;;4.82;;
52386;SDS011;38317;53.084;6.960;2023-07-24T04:27:53;9.05;;;4.53;;
52386;SDS011;38317;53.084;6.960;2023-07-24T04:30:19;7.13;;;4.32;;
52386;SDS011;38317;53.084;6.960;2023-07-24T04:32:45;8.57;;;4.70;;
52386;SDS011;38317;53.084;6.960;2023-07-24T04:35:11;9.00;;;4.80;;
52386;SDS011;38317;53.084;6.960;2023-07-24T04:37:37;8.55;;;4.90;;
52386;SDS011;38317;53.084;6.960;2023-07-24T04:40:03;7.82;;;4.97;;
52386;SDS011;38317;53.084;6.960;2023-07-24T04:42:30;7.78;;;4.97;;
52386;SDS011;38317;53.084;6.960;2023-07-24T04:44:56;7.53;;;4.47;;
52386;SDS011;38317;53.084;6.960;2023-07-24T04:47:22;9.07;;;4.97;;
52386;SDS011;38317;53.084;6.960;2023-07-24T04:49:47;7.38;;;4.32;;
52386;SDS011;38317;53.084;6.960;2023-07-24T04:52:13;8.10;;;5.20;;
52386;SDS011;38317;53.084;6.960;2023-07-24T04:54:39;10.18;;;5.78;;
52386;SDS011;38317;53.084;6.960;2023-07-24T04:57:04;8.45;;;5.10;;
52386;SDS011;38317;53.084;6.960;2023-07-24T04:59:30;9.00;;;5.57;;
52386;SDS011;38317;53.084;6.960;2023-07-24T05:01:56;9.65;;;5.57;;
52386;SDS011;38317;53.084;6.960;2023-07-24T05:04:22;8.20;;;5.50;;
52386;SDS011;38317;53.084;6.960;2023-07-24T05:06:47;8.65;;;5.20;;
52386;SDS011;38317;53.084;6.960;2023-07-24T05:09:13;9.60;;;5.72;;
52386;SDS011;38317;53.084;6.960;2023-07-24T05:11:39;7.93;;;5.00;;
52386;SDS011;38317;53.084;6.960;2023-07-24T05:14:08;8.85;;;5.50;;
52386;SDS011;38317;53.084;6.960;2023-07-24T05:16:37;8.23;;;5.30;;
52386;SDS011;38317;53.084;6.960;2023-07-24T05:19:05;8.02;;;5.28;;
52386;SDS011;38317;53.084;6.960;2023-07-24T05:21:31;9.20;;;5.50;;
52386;SDS011;38317;53.084;6.960;2023-07-24T05:23:56;8.68;;;5.10;;
52386;SDS011;38317;53.084;6.960;2023-07-24T05:26:22;9.85;;;5.70;;
52386;SDS011;38317;53.084;6.960;2023-07-24T05:28:50;10.75;;;5.00;;
52386;SDS011;38317;53.084;6.960;2023-07-24T05:31:19;7.82;;;5.20;;
52386;SDS011;38317;53.084;6.960;2023-07-24T05:33:48;7.57;;;4.93;;
52386;SDS011;38317;53.084;6.960;2023-07-24T05:36:13;8.60;;;4.72;;
52386;SDS011;38317;53.084;6.960;2023-07-24T05:38:42;8.25;;;4.95;;
52386;SDS011;38317;53.084;6.960;2023-07-24T05:41:08;7.88;;;5.07;;
52386;SDS011;38317;53.084;6.960;2023-07-24T05:43:33;7.88;;;5.00;;
52386;SDS011;38317;53.084;6.960;2023-07-24T05:45:59;7.70;;;5.00;;
52386;SDS011;38317;53.084;6.960;2023-07-24T05:48:34;8.75;;;5.03;;
52386;SDS011;38317;53.084;6.960;2023-07-24T05:51:00;8.27;;;5.03;;
52386;SDS011;38317;53.084;6.960;2023-07-24T05:53:26;10.25;;;5.43;;
52386;SDS011;38317;53.084;6.960;2023-07-24T05:55:56;7.95;;;4.78;;
52386;SDS011;38317;53.084;6.960;2023-07-24T05:58:25;8.48;;;5.55;;
52386;SDS011;38317;53.084;6.960;2023-07-24T06:00:55;8.85;;;5.55;;
52386;SDS011;38317;53.084;6.960;2023-07-24T06:03:24;10.43;;;6.40;;
52386;SDS011;38317;53.084;6.960;2023-07-24T06:06:04;8.68;;;5.40;;
52386;SDS011;38317;53.084;6.960;2023-07-24T06:08:38;8.75;;;5.40;;
52386;SDS011;38317;53.084;6.960;2023-07-24T06:11:04;9.52;;;5.25;;
52386;SDS011;38317;53.084;6.960;2023-07-24T06:13:29;10.52;;;5.97;;
52386;SDS011;38317;53.084;6.960;2023-07-24T06:15:55;9.00;;;5.50;;
52386;SDS011;38317;53.084;6.960;2023-07-24T06:18:21;9.73;;;6.45;;
52386;SDS011;38317;53.084;6.960;2023-07-24T06:20:47;10.07;;;6.05;;
52386;SDS011;38317;53.084;6.960;2023-07-24T06:23:16;8.80;;;5.82;;
52386;SDS011;38317;53.084;6.960;2023-07-24T06:25:42;8.65;;;5.75;;
52386;SDS011;38317;53.084;6.960;2023-07-24T06:28:08;11.13;;;6.03;;
52386;SDS011;38317;53.084;6.960;2023-07-24T06:30:33;7.88;;;5.30;;
52386;SDS011;38317;53.084;6.960;2023-07-24T06:32:59;7.85;;;5.13;;
52386;SDS011;38317;53.084;6.960;2023-07-24T06:35:25;9.65;;;6.25;;
52386;SDS011;38317;53.084;6.960;2023-07-24T06:37:51;11.82;;;6.03;;
52386;SDS011;38317;53.084;6.960;2023-07-24T06:40:16;9.30;;;5.90;;
52386;SDS011;38317;53.084;6.960;2023-07-24T06:42:42;9.55;;;6.32;;
52386;SDS011;38317;53.084;6.960;2023-07-24T06:45:08;12.50;;;6.15;;
52386;SDS011;38317;53.084;6.960;2023-07-24T06:47:34;10.73;;;5.88;;
52386;SDS011;38317;53.084;6.960;2023-07-24T06:49:59;10.43;;;5.60;;
52386;SDS011;38317;53.084;6.960;2023-07-24T06:52:25;10.55;;;6.00;;
52386;SDS011;38317;53.084;6.960;2023-07-24T06:54:51;9.88;;;6.47;;
52386;SDS011;38317;53.084;6.960;2023-07-24T06:57:19;9.30;;;6.05;;
52386;SDS011;38317;53.084;6.960;2023-07-24T06:59:45;9.98;;;6.20;;
52386;SDS011;38317;53.084;6.960;2023-07-24T07:02:11;10.38;;;5.47;;
52386;SDS011;38317;53.084;6.960;2023-07-24T07:04:36;10.35;;;5.47;;
52386;SDS011;38317;53.084;6.960;2023-07-24T07:07:02;10.27;;;5.63;;
52386;SDS011;38317;53.084;6.960;2023-07-24T07:09:29;9.13;;;5.30;;
52386;SDS011;38317;53.084;6.960;2023-07-24T07:11:54;9.55;;;6.05;;
52386;SDS011;38317;53.084;6.960;2023-07-24T07:14:20;10.95;;;6.85;;
52386;SDS011;38317;53.084;6.960;2023-07-24T07:16:46;11.10;;;5.82;;
52386;SDS011;38317;53.084;6.960;2023-07-24T07:19:12;8.45;;;5.13;;
52386;SDS011;38317;53.084;6.960;2023-07-24T07:21:38;11.68;;;5.38;;
52386;SDS011;38317;53.084;6.960;2023-07-24T07:24:04;9.88;;;5.10;;
52386;SDS011;38317;53.084;6.960;2023-07-24T07:26:30;9.77;;;5.10;;
52386;SDS011;38317;53.084;6.960;2023-07-24T07:28:56;8.38;;;5.15;;
52386;SDS011;38317;53.084;6.960;2023-07-24T07:31:21;9.80;;;5.13;;
52386;SDS011;38317;53.084;6.960;2023-07-24T07:33:47;9.65;;;5.40;;
52386;SDS011;38317;53.084;6.960;2023-07-24T07:36:13;8.40;;;4.97;;
52386;SDS011;38317;53.084;6.960;2023-07-24T07:38:39;10.27;;;5.38;;
52386;SDS011;38317;53.084;6.960;2023-07-24T07:41:05;9.25;;;5.43;;
52386;SDS011;38317;53.084;6.960;2023-07-24T07:43:31;8.35;;;5.07;;
52386;SDS011;38317;53.084;6.960;2023-07-24T07:45:57;8.95;;;5.32;;
52386;SDS011;38317;53.084;6.960;2023-07-24T07:48:24;10.48;;;5.63;;
52386;SDS011;38317;53.084;6.960;2023-07-24T07:50:50;10.95;;;5.00;;
52386;SDS011;38317;53.084;6.960;2023-07-24T07:53:16;11.02;;;6.20;;
52386;SDS011;38317;53.084;6.960;2023-07-24T07:55:42;8.27;;;4.97;;
52386;SDS011;38317;53.084;6.960;2023-07-24T07:58:08;11.52;;;6.10;;
52386;SDS011;38317;53.084;6.960;2023-07-24T08:00:34;8.68;;;5.30;;
52386;SDS011;38317;53.084;6.960;2023-07-24T08:02:59;8.75;;;5.05;;
52386;SDS011;38317;53.084;6.960;2023-07-24T08:05:25;12.27;;;6.25;;
52386;SDS011;38317;53.084;6.960;2023-07-24T08:07:51;9.90;;;5.32;;
52386;SDS011;38317;53.084;6.960;2023-07-24T08:10:17;12.32;;;6.30;;
52386;SDS011;38317;53.084;6.960;2023-07-24T08:12:43;12.65;;;5.65;;
52386;SDS011;38317;53.084;6.960;2023-07-24T08:15:10;10.43;;;5.97;;
52386;SDS011;38317;53.084;6.960;2023-07-24T08:17:36;9.05;;;5.63;;
52386;SDS011;38317;53.084;6.960;2023-07-24T08:20:02;9.90;;;5.85;;
52386;SDS011;38317;53.084;6.960;2023-07-24T08:22:28;9.57;;;4.90;;
52386;SDS011;38317;53.084;6.960;2023-07-24T08:24:54;10.95;;;4.82;;
52386;SDS011;38317;53.084;6.960;2023-07-24T08:27:19;10.95;;;5.75;;
52386;SDS011;38317;53.084;6.960;2023-07-24T08:29:45;11.93;;;5.22;;
52386;SDS011;38317;53.084;6.960;2023-07-24T08:32:11;9.40;;;5.40;;
52386;SDS011;38317;53.084;6.960;2023-07-24T08:34:37;8.55;;;4.65;;
52386;SDS011;38317;53.084;6.960;2023-07-24T08:37:03;10.32;;;4.85;;
52386;SDS011;38317;53.084;6.960;2023-07-24T08:39:30;10.38;;;4.97;;
52386;SDS011;38317;53.084;6.960;2023-07-24T08:41:56;10.77;;;5.47;;
52386;SDS011;38317;53.084;6.960;2023-07-24T08:44:22;10.60;;;5.00;;
52386;SDS011;38317;53.084;6.960;2023-07-24T08:46:50;9.55;;;5.78;;
52386;SDS011;38317;53.084;6.960;2023-07-24T08:49:17;11.20;;;5.13;;
52386;SDS011;38317;53.084;6.960;2023-07-24T08:51:44;9.45;;;5.03;;
52386;SDS011;38317;53.084;6.960;2023-07-24T08:54:11;9.50;;;4.82;;
52386;SDS011;38317;53.084;6.960;2023-07-24T08:56:37;10.82;;;5.57;;
52386;SDS011;38317;53.084;6.960;2023-07-24T08:59:05;11.75;;;4.60;;
52386;SDS011;38317;53.084;6.960;2023-07-24T09:01:31;8.52;;;5.20;;
52386;SDS011;38317;53.084;6.960;2023-07-24T09:03:57;7.53;;;4.68;;
52386;SDS011;38317;53.084;6.960;2023-07-24T09:06:23;9.60;;;4.65;;
52386;SDS011;38317;53.084;6.960;2023-07-24T09:08:48;11.07;;;4.90;;
52386;SDS011;38317;53.084;6.960;2023-07-24T09:11:18;8.68;;;4.35;;
52386;SDS011;38317;53.084;6.960;2023-07-24T09:13:44;9.07;;;4.75;;
52386;SDS011;38317;53.084;6.960;2023-07-24T09:16:20;8.68;;;4.70;;
52386;SDS011;38317;53.084;6.960;2023-07-24T09:18:48;8.73;;;3.83;;
52386;SDS011;38317;53.084;6.960;2023-07-24T09:21:26;10.43;;;4.47;;
52386;SDS011;38317;53.084;6.960;2023-07-24T09:23:55;9.68;;;4.68;;
52386;SDS011;38317;53.084;6.960;2023-07-24T09:26:21;8.23;;;4.28;;
52386;SDS011;38317;53.084;6.960;2023-07-24T09:28:54;9.30;;;4.97;;
52386;SDS011;38317;53.084;6.960;2023-07-24T09:33:45;8.27;;;3.88;;
52386;SDS011;38317;53.084;6.960;2023-07-24T09:36:11;8.70;;;4.00;;
52386;SDS011;38317;53.084;6.960;2023-07-24T09:38:38;6.70;;;3.40;;
52386;SDS011;38317;53.084;6.960;2023-07-24T09:41:05;7.70;;;3.72;;
52386;SDS011;38317;53.084;6.960;2023-07-24T09:43:32;9.35;;;3.90;;
52386;SDS011;38317;53.084;6.960;2023-07-24T09:46:00;6.72;;;3.63;;
52386;SDS011;38317;53.084;6.960;2023-07-24T09:48:29;8.70;;;3.97;;
52386;SDS011;38317;53.084;6.960;2023-07-24T09:50:57;7.00;;;3.42;;
52386;SDS011;38317;53.084;6.960;2023-07-24T09:56:40;7.65;;;3.28;;
52386;SDS011;38317;53.084;6.960;2023-07-24T09:59:07;6.90;;;3.20;;
52386;SDS011;38317;53.084;6.960;2023-07-24T10:01:35;8.18;;;3.40;;
52386;SDS011;38317;53.084;6.960;2023-07-24T10:04:02;6.80;;;3.47;;
52386;SDS011;38317;53.084;6.960;2023-07-24T10:06:30;7.43;;;3.05;;
52386;SDS011;38317;53.084;6.960;2023-07-24T10:08:56;6.05;;;3.00;;
52386;SDS011;38317;53.084;6.960;2023-07-24T10:11:23;6.65;;;3.08;;
52386;SDS011;38317;53.084;6.960;2023-07-24T10:13:51;8.73;;;3.03;;
52386;SDS011;38317;53.084;6.960;2023-07-24T10:16:18;6.88;;;3.50;;
52386;SDS011;38317;53.084;6.960;2023-07-24T10:18:44;7.88;;;3.30;;
52386;SDS011;38317;53.084;6.960;2023-07-24T10:21:11;5.90;;;2.55;;
52386;SDS011;38317;53.084;6.960;2023-07-24T10:23:41;7.82;;;2.78;;
52386;SDS011;38317;53.084;6.960;2023-07-24T10:26:08;6.03;;;2.80;;
52386;SDS011;38317;53.084;6.960;2023-07-24T10:28:35;4.75;;;2.42;;
52386;SDS011;38317;53.084;6.960;2023-07-24T10:31:19;6.78;;;2.72;;
52386;SDS011;38317;53.084;6.960;2023-07-24T10:33:46;7.50;;;2.53;;
52386;SDS011;38317;53.084;6.960;2023-07-24T10:36:16;4.25;;;2.20;;
52386;SDS011;38317;53.084;6.960;2023-07-24T10:38:44;6.28;;;2.55;;
52386;SDS011;38317;53.084;6.960;2023-07-24T10:41:11;4.30;;;2.03;;
52386;SDS011;38317;53.084;6.960;2023-07-24T10:43:41;6.72;;;2.28;;
52386;SDS011;38317;53.084;6.960;2023-07-24T10:46:15;5.82;;;2.53;;
52386;SDS011;38317;53.084;6.960;2023-07-24T10:48:49;4.35;;;2.00;;
52386;SDS011;38317;53.084;6.960;2023-07-24T10:51:16;5.53;;;2.22;;
52386;SDS011;38317;53.084;6.960;2023-07-24T10:53:44;5.63;;;2.08;;
52386;SDS011;38317;53.084;6.960;2023-07-24T10:56:14;4.95;;;2.10;;
52386;SDS011;38317;53.084;6.960;2023-07-24T10:58:41;5.63;;;2.50;;
52386;SDS011;38317;53.084;6.960;2023-07-24T11:01:07;4.10;;;2.15;;
52386;SDS011;38317;53.084;6.960;2023-07-24T11:03:38;5.05;;;2.28;;
52386;SDS011;38317;53.084;6.960;2023-07-24T11:06:10;5.30;;;2.33;;
52386;SDS011;38317;53.084;6.960;2023-07-24T11:08:51;5.13;;;2.15;;
52386;SDS011;38317;53.084;6.960;2023-07-24T11:11:21;5.93;;;2.47;;
52386;SDS011;38317;53.084;6.960;2023-07-24T11:13:52;6.57;;;2.42;;
52386;SDS011;38317;53.084;6.960;2023-07-24T11:16:18;6.20;;;2.83;;
52386;SDS011;38317;53.084;6.960;2023-07-24T11:18:44;7.22;;;2.25;;
52386;SDS011;38317;53.084;6.960;2023-07-24T11:21:12;3.97;;;1.98;;
52386;SDS011;38317;53.084;6.960;2023-07-24T11:23:44;5.13;;;2.20;;
52386;SDS011;38317;53.084;6.960;2023-07-24T11:26:11;4.75;;;2.00;;
52386;SDS011;38317;53.084;6.960;2023-07-24T11:28:40;6.28;;;2.60;;
52386;SDS011;38317;53.084;6.960;2023-07-24T11:31:06;6.38;;;2.28;;
52386;SDS011;38317;53.084;6.960;2023-07-24T11:33:31;5.70;;;2.70;;
52386;SDS011;38317;53.084;6.960;2023-07-24T11:35:58;7.63;;;2.65;;
52386;SDS011;38317;53.084;6.960;2023-07-24T11:38:24;7.53;;;2.47;;
52386;SDS011;38317;53.084;6.960;2023-07-24T11:40:50;5.25;;;1.90;;
52386;SDS011;38317;53.084;6.960;2023-07-24T11:43:21;4.82;;;2.00;;
52386;SDS011;38317;53.084;6.960;2023-07-24T11:45:49;4.95;;;2.05;;
52386;SDS011;38317;53.084;6.960;2023-07-24T11:48:22;6.80;;;2.63;;
52386;SDS011;38317;53.084;6.960;2023-07-24T11:50:56;4.35;;;2.20;;
52386;SDS011;38317;53.084;6.960;2023-07-24T11:53:26;5.05;;;2.00;;
52386;SDS011;38317;53.084;6.960;2023-07-24T11:55:57;5.22;;;2.10;;
52386;SDS011;38317;53.084;6.960;2023-07-24T11:58:26;7.82;;;2.58;;
52386;SDS011;38317;53.084;6.960;2023-07-24T12:00:53;6.10;;;2.30;;
52386;SDS011;38317;53.084;6.960;2023-07-24T12:03:20;6.10;;;2.60;;
52386;SDS011;38317;53.084;6.960;2023-07-24T12:05:55;7.10;;;2.95;;
52386;SDS011;38317;53.084;6.960;2023-07-24T12:08:29;6.13;;;2.97;;
52386;SDS011;38317;53.084;6.960;2023-07-24T12:11:00;6.55;;;2.42;;
52386;SDS011;38317;53.084;6.960;2023-07-24T12:13:26;5.72;;;2.65;;
52386;SDS011;38317;53.084;6.960;2023-07-24T12:15:52;6.60;;;2.83;;
52386;SDS011;38317;53.084;6.960;2023-07-24T12:18:18;7.35;;;2.85;;
52386;SDS011;38317;53.084;6.960;2023-07-24T12:20:44;6.65;;;3.00;;
52386;SDS011;38317;53.084;6.960;2023-07-24T12:23:10;5.22;;;2.45;;
52386;SDS011;38317;53.084;6.960;2023-07-24T12:25:35;5.65;;;2.58;;
52386;SDS011;38317;53.084;6.960;2023-07-24T12:28:01;6.40;;;2.30;;
52386;SDS011;38317;53.084;6.960;2023-07-24T12:30:27;5.10;;;2.10;;
52386;SDS011;38317;53.084;6.960;2023-07-24T12:32:53;6.60;;;2.50;;
52386;SDS011;38317;53.084;6.960;2023-07-24T12:35:18;6.97;;;2.65;;
52386;SDS011;38317;53.084;6.960;2023-07-24T12:37:44;5.70;;;2.50;;
52386;SDS011;38317;53.084;6.960;2023-07-24T12:40:11;5.95;;;2.22;;
52386;SDS011;38317;53.084;6.960;2023-07-24T12:42:37;6.70;;;2.63;;
52386;SDS011;38317;53.084;6.960;2023-07-24T12:45:03;5.43;;;2.55;;
52386;SDS011;38317;53.084;6.960;2023-07-24T12:47:29;5.07;;;2.60;;
52386;SDS011;38317;53.084;6.960;2023-07-24T12:49:56;6.50;;;2.78;;
52386;SDS011;38317;53.084;6.960;2023-07-24T12:52:23;5.70;;;2.33;;
52386;SDS011;38317;53.084;6.960;2023-07-24T12:54:49;6.20;;;2.55;;
52386;SDS011;38317;53.084;6.960;2023-07-24T12:57:15;5.35;;;2.10;;
52386;SDS011;38317;53.084;6.960;2023-07-24T12:59:41;5.88;;;2.08;;
52386;SDS011;38317;53.084;6.960;2023-07-24T13:02:07;5.07;;;2.03;;
52386;SDS011;38317;53.084;6.960;2023-07-24T13:04:32;6.85;;;2.90;;
52386;SDS011;38317;53.084;6.960;2023-07-24T13:06:58;7.85;;;3.45;;
52386;SDS011;38317;53.084;6.960;2023-07-24T13:09:25;6.00;;;3.17;;
52386;SDS011;38317;53.084;6.960;2023-07-24T13:11:52;8.73;;;3.10;;
52386;SDS011;38317;53.084;6.960;2023-07-24T13:14:19;5.57;;;2.47;;
52386;SDS011;38317;53.084;6.960;2023-07-24T13:16:46;6.35;;;2.75;;
52386;SDS011;38317;53.084;6.960;2023-07-24T13:19:12;5.15;;;2.10;;
52386;SDS011;38317;53.084;6.960;2023-07-24T13:21:38;5.60;;;2.30;;
52386;SDS011;38317;53.084;6.960;2023-07-24T13:24:05;6.53;;;2.17;;
52386;SDS011;38317;53.084;6.960;2023-07-24T13:26:32;5.75;;;2.15;;
52386;SDS011;38317;53.084;6.960;2023-07-24T13:28:58;6.57;;;2.15;;
52386;SDS011;38317;53.084;6.960;2023-07-24T13:31:24;5.78;;;2.42;;
52386;SDS011;38317;53.084;6.960;2023-07-24T13:33:49;6.68;;;2.42;;
52386;SDS011;38317;53.084;6.960;2023-07-24T13:36:15;5.43;;;2.38;;
52386;SDS011;38317;53.084;6.960;2023-07-24T13:38:41;4.53;;;2.13;;
52386;SDS011;38317;53.084;6.960;2023-07-24T13:41:07;4.40;;;2.08;;
52386;SDS011;38317;53.084;6.960;2023-07-24T13:43:33;3.72;;;1.80;;
52386;SDS011;38317;53.084;6.960;2023-07-24T13:45:59;5.60;;;2.13;;
52386;SDS011;38317;53.084;6.960;2023-07-24T13:48:27;3.70;;;2.00;;
52386;SDS011;38317;53.084;6.960;2023-07-24T13:50:54;6.07;;;1.90;;
52386;SDS011;38317;53.084;6.960;2023-07-24T13:53:20;3.17;;;1.95;;
52386;SDS011;38317;53.084;6.960;2023-07-24T13:55:46;4.55;;;2.28;;
52386;SDS011;38317;53.084;6.960;2023-07-24T13:58:12;4.15;;;2.00;;
52386;SDS011;38317;53.084;6.960;2023-07-24T14:00:38;4.15;;;2.00;;
52386;SDS011;38317;53.084;6.960;2023-07-24T14:03:03;4.03;;;2.22;;
52386;SDS011;38317;53.084;6.960;2023-07-24T14:05:29;5.80;;;2.35;;
52386;SDS011;38317;53.084;6.960;2023-07-24T14:07:55;6.18;;;2.28;;
52386;SDS011;38317;53.084;6.960;2023-07-24T14:10:21;5.57;;;2.40;;
52386;SDS011;38317;53.084;6.960;2023-07-24T14:12:46;5.13;;;2.55;;
52386;SDS011;38317;53.084;6.960;2023-07-24T14:15:12;4.18;;;2.33;;
52386;SDS011;38317;53.084;6.960;2023-07-24T14:17:38;3.90;;;2.55;;
52386;SDS011;38317;53.084;6.960;2023-07-24T14:20:04;5.22;;;2.58;;
52386;SDS011;38317;53.084;6.960;2023-07-24T14:22:30;5.15;;;2.20;;
52386;SDS011;38317;53.084;6.960;2023-07-24T14:24:56;6.03;;;3.00;;
52386;SDS011;38317;53.084;6.960;2023-07-24T14:27:22;5.20;;;2.40;;
52386;SDS011;38317;53.084;6.960;2023-07-24T14:29:48;4.32;;;2.10;;
52386;SDS011;38317;53.084;6.960;2023-07-24T14:32:13;4.07;;;2.40;;
52386;SDS011;38317;53.084;6.960;2023-07-24T14:34:40;4.78;;;2.70;;
52386;SDS011;38317;53.084;6.960;2023-07-24T14:37:06;5.18;;;2.70;;
52386;SDS011;38317;53.084;6.960;2023-07-24T14:39:32;5.38;;;2.45;;
52386;SDS011;38317;53.084;6.960;2023-07-24T14:41:58;3.58;;;2.03;;
52386;SDS011;38317;53.084;6.960;2023-07-24T14:44:24;3.25;;;1.80;;
52386;SDS011;38317;53.084;6.960;2023-07-24T14:46:50;4.65;;;1.50;;
52386;SDS011;38317;53.084;6.960;2023-07-24T14:49:16;7.57;;;1.40;;
52386;SDS011;38317;53.084;6.960;2023-07-24T14:51:41;2.38;;;1.05;;
52386;SDS011;38317;53.084;6.960;2023-07-24T14:54:07;3.03;;;1.08;;
52386;SDS011;38317;53.084;6.960;2023-07-24T14:56:33;5.45;;;1.13;;